createdAt,value
2019-02-06T00:02:09.376Z,5.73
2019-02-06T00:04:15.567Z,5.90
2019-02-06T00:06:19.582Z,6.03
2019-02-06T00:08:24.487Z,6.30
2019-02-06T00:10:28.960Z,6.13
2019-02-06T00:12:34.531Z,6.60
2019-02-06T00:14:38.487Z,6.03
2019-02-06T00:16:42.431Z,6.03
2019-02-06T00:18:46.357Z,7.10
2019-02-06T00:20:50.257Z,6.43
2019-02-06T00:22:54.783Z,6.80
2019-02-06T00:24:59.060Z,6.90
2019-02-06T00:27:03.226Z,7.23
2019-02-06T00:29:07.186Z,7.20
2019-02-06T00:31:11.067Z,7.17
2019-02-06T00:33:14.982Z,6.63
2019-02-06T00:35:25.764Z,6.93
2019-02-06T00:37:43.711Z,7.70
2019-02-06T00:39:47.519Z,7.93
2019-02-06T00:41:51.948Z,8.47
2019-02-06T00:43:56.877Z,8.37
2019-02-06T00:46:00.768Z,7.33
2019-02-06T00:48:04.876Z,6.70
2019-02-06T00:50:09.963Z,7.50
2019-02-06T00:52:13.974Z,7.00
2019-02-06T00:54:17.937Z,6.80
2019-02-06T00:56:22.035Z,6.70
2019-02-06T00:58:26.671Z,6.40
2019-02-06T01:00:30.959Z,7.17
2019-02-06T01:02:35.928Z,8.20
2019-02-06T01:04:39.771Z,7.50
2019-02-06T01:06:43.851Z,7.90
2019-02-06T01:08:47.727Z,7.50
2019-02-06T01:10:51.692Z,7.83
2019-02-06T01:12:56.534Z,7.73
2019-02-06T01:15:01.919Z,8.33
2019-02-06T01:17:06.599Z,8.67
2019-02-06T01:19:10.543Z,8.43
2019-02-06T01:21:14.515Z,8.93
2019-02-06T01:23:18.792Z,8.13
2019-02-06T01:25:23.491Z,8.43
2019-02-06T01:27:27.763Z,8.57
2019-02-06T01:29:31.812Z,9.43
2019-02-06T01:31:36.050Z,9.30
2019-02-06T01:33:40.450Z,9.57
2019-02-06T01:35:50.077Z,8.50
2019-02-06T01:37:49.965Z,9.50
2019-02-06T01:39:54.625Z,9.67
2019-02-06T01:41:58.983Z,8.83
2019-02-06T01:44:03.232Z,8.37
2019-02-06T01:46:07.218Z,9.20
2019-02-06T01:48:11.050Z,9.47
2019-02-06T01:50:16.719Z,10.47
2019-02-06T01:52:20.923Z,9.43
2019-02-06T01:54:26.352Z,9.43
2019-02-06T01:56:30.553Z,9.10
2019-02-06T01:58:34.450Z,9.07
2019-02-06T02:00:38.831Z,9.77
2019-02-06T02:02:42.931Z,9.67
2019-02-06T02:04:47.374Z,9.67
2019-02-06T02:06:51.211Z,9.23
2019-02-06T02:08:59.874Z,9.13
2019-02-06T02:11:04.262Z,9.03
2019-02-06T02:13:08.242Z,9.40
2019-02-06T02:15:13.808Z,9.23
2019-02-06T02:17:18.011Z,9.53
2019-02-06T02:19:21.935Z,9.03
2019-02-06T02:21:26.520Z,9.40
2019-02-06T02:23:30.743Z,10.03
2019-02-06T02:25:34.837Z,9.73
2019-02-06T02:27:38.840Z,9.17
2019-02-06T02:29:42.946Z,10.00
2019-02-06T02:31:47.338Z,9.67
2019-02-06T02:33:51.184Z,10.97
2019-02-06T02:35:55.983Z,9.70
2019-02-06T02:38:00.252Z,9.90
2019-02-06T02:40:06.802Z,9.45
2019-02-06T02:42:10.674Z,10.30
2019-02-06T02:44:14.436Z,9.43
2019-02-06T02:46:18.280Z,10.80
2019-02-06T02:48:22.539Z,10.30
2019-02-06T02:50:26.930Z,10.40
2019-02-06T02:52:30.825Z,10.17
2019-02-06T02:54:34.735Z,10.40
2019-02-06T02:56:38.545Z,10.57
2019-02-06T02:58:42.399Z,10.40
2019-02-06T03:01:14.876Z,10.27
2019-02-06T03:03:36.646Z,9.17
2019-02-06T03:05:40.621Z,10.37
2019-02-06T03:07:44.575Z,10.13
2019-02-06T03:09:48.428Z,10.77
2019-02-06T03:11:52.439Z,11.43
2019-02-06T03:13:57.230Z,10.50
2019-02-06T03:16:01.323Z,11.30
2019-02-06T03:18:05.546Z,11.17
2019-02-06T03:20:10.686Z,11.57
2019-02-06T03:22:14.446Z,11.33
2019-02-06T03:24:18.320Z,11.17
2019-02-06T03:26:22.265Z,11.40
2019-02-06T03:28:26.916Z,12.17
2019-02-06T03:30:31.200Z,12.40
2019-02-06T03:32:35.160Z,11.20
2019-02-06T03:34:39.049Z,12.30
2019-02-06T03:36:42.999Z,12.00
2019-02-06T03:38:46.787Z,12.73
2019-02-06T03:40:51.032Z,12.40
2019-02-06T03:42:55.160Z,11.47
2019-02-06T03:44:59.205Z,12.63
2019-02-06T03:47:03.407Z,12.53
2019-02-06T03:49:07.443Z,12.17
2019-02-06T03:51:11.764Z,11.63
2019-02-06T03:53:15.581Z,11.40
2019-02-06T03:55:19.427Z,11.83
2019-02-06T03:57:23.282Z,11.10
2019-02-06T03:59:27.912Z,12.20
2019-02-06T04:01:31.900Z,12.47
2019-02-06T04:03:35.908Z,12.43
2019-02-06T04:05:39.994Z,12.00
2019-02-06T04:07:43.952Z,10.77
2019-02-06T04:09:48.144Z,11.40
2019-02-06T04:11:51.939Z,11.50
2019-02-06T04:13:56.460Z,10.67
2019-02-06T04:16:00.845Z,10.83
2019-02-06T04:18:05.182Z,11.53
2019-02-06T04:20:10.542Z,11.03
2019-02-06T04:22:14.515Z,10.40
2019-02-06T04:24:18.331Z,11.57
2019-02-06T04:26:22.145Z,11.00
2019-02-06T04:28:26.937Z,11.07
2019-02-06T04:30:31.041Z,11.23
2019-02-06T04:32:34.922Z,10.37
2019-02-06T04:34:38.853Z,12.10
2019-02-06T04:36:42.725Z,11.33
2019-02-06T04:38:46.535Z,11.90
2019-02-06T04:40:50.454Z,11.07
2019-02-06T04:42:54.670Z,10.93
2019-02-06T04:44:59.455Z,11.10
2019-02-06T04:47:03.791Z,11.60
2019-02-06T04:49:07.680Z,11.40
2019-02-06T04:51:11.446Z,10.67
2019-02-06T04:53:15.427Z,10.73
2019-02-06T04:55:19.392Z,10.60
2019-02-06T04:57:23.568Z,10.10
2019-02-06T04:59:27.872Z,11.40
2019-02-06T05:01:31.935Z,11.13
2019-02-06T05:03:35.953Z,10.70
2019-02-06T05:05:39.807Z,10.37
2019-02-06T05:07:44.283Z,11.70
2019-02-06T05:09:48.159Z,12.00
2019-02-06T05:11:52.062Z,11.57
2019-02-06T05:13:56.278Z,11.70
2019-02-06T05:16:00.464Z,9.80
2019-02-06T05:18:05.141Z,10.47
2019-02-06T05:20:22.875Z,11.70
2019-02-06T05:22:28.288Z,10.77
2019-02-06T05:24:32.399Z,11.90
2019-02-06T05:26:36.472Z,10.77
2019-02-06T05:28:40.416Z,11.10
2019-02-06T05:30:44.507Z,11.30
2019-02-06T05:32:48.403Z,10.93
2019-02-06T05:34:52.231Z,10.93
2019-02-06T05:36:56.416Z,12.37
2019-02-06T05:39:00.547Z,12.10
2019-02-06T05:41:04.460Z,10.90
2019-02-06T05:43:08.893Z,11.07
2019-02-06T05:45:13.066Z,10.73
2019-02-06T05:47:16.883Z,10.93
2019-02-06T05:49:20.707Z,11.40
2019-02-06T05:51:24.598Z,13.47
2019-02-06T05:53:28.783Z,12.50
2019-02-06T05:55:33.139Z,10.97
2019-02-06T05:57:37.068Z,12.00
2019-02-06T05:59:41.358Z,11.83
2019-02-06T06:01:45.376Z,11.37
2019-02-06T06:03:49.255Z,10.30
2019-02-06T06:05:54.059Z,11.03
2019-02-06T06:07:58.589Z,10.83
2019-02-06T06:10:03.052Z,11.83
2019-02-06T06:12:07.173Z,11.70
2019-02-06T06:14:10.956Z,10.60
2019-02-06T06:16:14.871Z,11.80
2019-02-06T06:18:21.835Z,12.23
2019-02-06T06:20:24.305Z,11.33
2019-02-06T06:22:28.679Z,12.43
2019-02-06T06:24:32.968Z,10.73
2019-02-06T06:26:37.028Z,10.87
2019-02-06T06:28:40.882Z,11.10
2019-02-06T06:30:47.175Z,11.63
2019-02-06T06:33:09.504Z,11.07
2019-02-06T06:35:13.582Z,12.57
2019-02-06T06:37:17.485Z,13.17
2019-02-06T06:39:21.378Z,12.50
2019-02-06T06:41:25.291Z,12.20
2019-02-06T06:43:30.038Z,12.93
2019-02-06T06:45:34.221Z,11.60
2019-02-06T06:47:38.213Z,12.77
2019-02-06T06:49:42.111Z,11.97
2019-02-06T06:51:45.944Z,13.37
2019-02-06T06:53:49.983Z,12.27
2019-02-06T06:55:53.805Z,12.17
2019-02-06T06:57:58.132Z,13.03
2019-02-06T07:00:02.000Z,11.70
2019-02-06T07:02:06.068Z,12.37
2019-02-06T07:04:10.599Z,12.50
2019-02-06T07:06:14.471Z,11.97
2019-02-06T07:08:18.417Z,13.53
2019-02-06T07:10:22.327Z,12.03
2019-02-06T07:12:26.163Z,12.20
2019-02-06T07:14:39.351Z,13.53
2019-02-06T07:16:43.196Z,11.87
2019-02-06T07:18:47.010Z,11.60
2019-02-06T07:20:50.835Z,12.20
2019-02-06T07:22:54.983Z,12.43
2019-02-06T07:24:59.707Z,12.03
2019-02-06T07:27:04.595Z,11.77
2019-02-06T07:29:08.600Z,11.90
2019-02-06T07:31:12.403Z,13.93
2019-02-06T07:33:16.303Z,12.30
2019-02-06T07:35:20.327Z,12.23
2019-02-06T07:37:24.152Z,13.27
2019-02-06T07:39:28.426Z,12.70
2019-02-06T07:41:32.790Z,12.40
2019-02-06T07:43:36.723Z,12.40
2019-02-06T07:45:40.771Z,18.87
2019-02-06T07:47:44.763Z,31.40
2019-02-06T07:49:48.541Z,17.97
2019-02-06T07:51:52.439Z,11.80
2019-02-06T07:53:56.312Z,32.13
2019-02-06T07:56:01.323Z,20.90
2019-02-06T07:58:05.273Z,12.63
2019-02-06T08:00:09.784Z,12.63
2019-02-06T08:02:13.694Z,12.70
2019-02-06T08:04:17.616Z,11.90
2019-02-06T08:06:21.998Z,11.67
2019-02-06T08:08:35.582Z,10.70
2019-02-06T08:10:33.445Z,11.63
2019-02-06T08:12:37.583Z,11.93
2019-02-06T08:14:41.474Z,11.07
2019-02-06T08:16:45.555Z,10.17
2019-02-06T08:18:49.419Z,10.30
2019-02-06T08:20:53.297Z,11.93
2019-02-06T08:22:57.401Z,11.57
2019-02-06T08:25:02.195Z,14.87
2019-02-06T08:27:06.876Z,12.67
2019-02-06T08:29:11.086Z,10.77
2019-02-06T08:31:15.045Z,11.50
2019-02-06T08:33:18.861Z,11.43
2019-02-06T08:35:23.185Z,11.50
2019-02-06T08:37:27.532Z,13.17
2019-02-06T08:39:32.103Z,13.87
2019-02-06T08:41:36.484Z,10.63
2019-02-06T08:43:40.720Z,11.57
2019-02-06T08:45:44.639Z,11.03
2019-02-06T08:47:48.802Z,10.43
2019-02-06T08:49:53.043Z,10.13
2019-02-06T08:51:57.007Z,10.73
2019-02-06T08:54:01.665Z,11.03
2019-02-06T08:56:05.903Z,10.80
2019-02-06T08:58:11.619Z,11.00
2019-02-06T09:00:21.624Z,9.93
2019-02-06T09:02:25.508Z,11.57
2019-02-06T09:04:29.950Z,11.07
2019-02-06T09:06:34.158Z,11.27
2019-02-06T09:08:38.676Z,11.13
2019-02-06T09:10:42.557Z,11.50
2019-02-06T09:12:46.374Z,11.27
2019-02-06T09:14:50.328Z,10.80
2019-02-06T09:16:54.257Z,11.00
2019-02-06T09:18:58.995Z,11.40
2019-02-06T09:21:03.331Z,10.93
2019-02-06T09:23:07.600Z,9.90
2019-02-06T09:25:12.451Z,11.13
2019-02-06T09:27:16.551Z,10.90
2019-02-06T09:29:20.391Z,10.53
2019-02-06T09:31:24.931Z,10.93
2019-02-06T09:33:29.879Z,10.67
2019-02-06T09:35:34.110Z,11.17
2019-02-06T09:37:38.626Z,11.00
2019-02-06T09:39:42.390Z,10.93
2019-02-06T09:41:46.247Z,11.10
2019-02-06T09:43:50.201Z,10.80
2019-02-06T09:45:57.005Z,12.03
2019-02-06T09:48:00.987Z,10.73
2019-02-06T09:50:07.832Z,11.45
2019-02-06T09:52:11.698Z,11.20
2019-02-06T09:54:15.556Z,11.23
2019-02-06T09:56:19.409Z,11.03
2019-02-06T09:58:23.332Z,11.50
2019-02-06T10:00:30.079Z,10.77
2019-02-06T10:02:34.484Z,10.33
2019-02-06T10:04:38.415Z,10.47
2019-02-06T10:06:42.364Z,10.93
2019-02-06T10:08:46.243Z,11.00
2019-02-06T10:10:50.129Z,10.37
2019-02-06T10:12:54.209Z,11.93
2019-02-06T10:14:58.216Z,11.83
2019-02-06T10:17:02.936Z,11.47
2019-02-06T10:19:07.131Z,11.10
2019-02-06T10:21:11.351Z,10.50
2019-02-06T10:23:15.379Z,11.30
2019-02-06T10:25:19.429Z,10.20
2019-02-06T10:27:24.082Z,10.37
2019-02-06T10:29:28.291Z,11.57
2019-02-06T10:31:33.152Z,10.97
2019-02-06T10:33:37.947Z,10.80
2019-02-06T10:35:42.458Z,11.00
2019-02-06T10:37:46.547Z,11.50
2019-02-06T10:39:50.428Z,12.53
2019-02-06T10:41:54.311Z,14.03
2019-02-06T10:43:58.239Z,12.53
2019-02-06T10:46:03.435Z,12.63
2019-02-06T10:48:07.839Z,13.30
2019-02-06T10:50:13.492Z,11.83
2019-02-06T10:52:17.439Z,11.57
2019-02-06T10:54:21.711Z,11.67
2019-02-06T10:56:25.537Z,11.83
2019-02-06T10:58:30.696Z,12.33
2019-02-06T11:00:38.311Z,12.30
2019-02-06T11:02:42.431Z,12.43
2019-02-06T11:04:46.636Z,11.73
2019-02-06T11:06:50.540Z,12.30
2019-02-06T11:08:54.368Z,12.17
2019-02-06T11:10:58.320Z,11.77
2019-02-06T11:13:04.110Z,11.43
2019-02-06T11:15:09.968Z,10.87
2019-02-06T11:17:13.772Z,11.60
2019-02-06T11:19:17.772Z,10.77
2019-02-06T11:21:21.647Z,10.83
2019-02-06T11:23:25.528Z,11.33
2019-02-06T11:25:30.887Z,11.20
2019-02-06T11:27:35.210Z,11.23
2019-02-06T11:29:39.305Z,12.00
2019-02-06T11:31:43.375Z,12.80
2019-02-06T11:33:47.324Z,13.07
2019-02-06T11:35:51.956Z,11.60
2019-02-06T11:37:55.799Z,12.00
2019-02-06T11:40:00.727Z,10.53
2019-02-06T11:42:04.862Z,10.93
2019-02-06T11:44:08.975Z,11.00
2019-02-06T11:46:13.200Z,9.93
2019-02-06T11:48:17.088Z,10.10
2019-02-06T11:50:24.891Z,9.80
2019-02-06T11:52:28.690Z,9.77
2019-02-06T11:54:33.388Z,10.60
2019-02-06T11:56:37.589Z,10.67
2019-02-06T11:58:41.771Z,11.40
2019-02-06T12:01:04.784Z,9.67
2019-02-06T12:03:09.099Z,9.53
2019-02-06T12:05:13.640Z,9.93
2019-02-06T12:07:17.519Z,7.47
2019-02-06T12:09:21.784Z,7.53
2019-02-06T12:11:25.651Z,6.80
2019-02-06T12:13:30.151Z,7.87
2019-02-06T12:15:34.376Z,7.97
2019-02-06T12:17:38.628Z,7.43
2019-02-06T12:19:42.739Z,8.50
2019-02-06T12:21:46.704Z,8.17
2019-02-06T12:23:50.507Z,8.20
2019-02-06T12:25:54.463Z,7.80
2019-02-06T12:27:58.361Z,8.17
2019-02-06T12:30:05.100Z,7.63
2019-02-06T12:32:09.282Z,6.47
2019-02-06T12:34:13.218Z,7.13
2019-02-06T12:36:17.075Z,7.43
2019-02-06T12:38:22.264Z,7.63
2019-02-06T12:40:26.611Z,6.90
2019-02-06T12:42:31.376Z,6.80
2019-02-06T12:44:35.560Z,6.33
2019-02-06T12:46:39.740Z,6.67
2019-02-06T12:48:43.665Z,6.50
2019-02-06T12:50:47.574Z,6.60
2019-02-06T12:52:51.558Z,6.60
2019-02-06T12:54:55.491Z,5.77
2019-02-06T12:56:59.342Z,6.20
2019-02-06T12:59:05.103Z,5.67
2019-02-06T13:01:09.115Z,6.20
2019-02-06T13:03:13.377Z,5.87
2019-02-06T13:05:17.375Z,6.00
2019-02-06T13:07:21.395Z,5.80
2019-02-06T13:09:25.552Z,5.97
2019-02-06T13:11:29.891Z,6.10
2019-02-06T13:13:34.895Z,5.20
2019-02-06T13:15:39.215Z,5.27
2019-02-06T13:17:43.492Z,5.90
2019-02-06T13:19:47.704Z,5.63
2019-02-06T13:21:51.623Z,5.47
2019-02-06T13:23:55.448Z,6.07
2019-02-06T13:25:59.278Z,6.13
2019-02-06T13:28:04.542Z,6.50
2019-02-06T13:30:13.015Z,6.07
2019-02-06T13:32:16.967Z,5.43
2019-02-06T13:34:20.839Z,6.33
2019-02-06T13:36:24.646Z,6.27
2019-02-06T13:38:28.765Z,5.03
2019-02-06T13:40:44.823Z,6.30
2019-02-06T13:42:39.351Z,5.60
2019-02-06T13:44:43.291Z,5.97
2019-02-06T13:46:53.209Z,6.20
2019-02-06T13:48:52.759Z,6.60
2019-02-06T13:50:56.867Z,5.97
2019-02-06T13:53:00.968Z,5.87
2019-02-06T13:55:07.589Z,5.67
2019-02-06T13:57:11.588Z,6.00
2019-02-06T13:59:15.383Z,5.93
2019-02-06T14:01:25.671Z,5.80
2019-02-06T14:03:24.920Z,6.23
2019-02-06T14:05:29.968Z,6.50
2019-02-06T14:07:34.765Z,6.00
2019-02-06T14:09:38.888Z,6.67
2019-02-06T14:11:43.241Z,5.87
2019-02-06T14:13:47.549Z,6.43
2019-02-06T14:15:51.595Z,5.70
2019-02-06T14:17:55.550Z,5.80
2019-02-06T14:20:01.156Z,5.77
2019-02-06T14:22:05.851Z,6.63
2019-02-06T14:24:49.485Z,6.77
2019-02-06T14:27:16.111Z,6.63
2019-02-06T14:30:04.700Z,6.30
2019-02-06T14:32:39.338Z,6.53
2019-02-06T14:34:49.255Z,6.47
2019-02-06T14:37:32.311Z,5.93
2019-02-06T14:40:05.142Z,6.90
2019-02-06T14:42:38.884Z,6.57
2019-02-06T14:44:58.157Z,6.40
2019-02-06T14:47:35.014Z,6.13
2019-02-06T14:50:15.887Z,6.77
2019-02-06T14:52:57.125Z,6.00
2019-02-06T14:55:33.594Z,6.87
2019-02-06T14:58:17.643Z,6.30
2019-02-06T15:00:59.981Z,6.50
2019-02-06T15:03:41.194Z,6.33
2019-02-06T15:06:23.775Z,5.93
2019-02-06T15:09:10.699Z,6.60
2019-02-06T15:11:43.199Z,6.10
2019-02-06T15:14:10.399Z,6.23
2019-02-06T15:16:51.436Z,6.60
2019-02-06T15:19:03.455Z,6.93
2019-02-06T15:21:30.928Z,6.67
2019-02-06T15:24:19.170Z,6.60
2019-02-06T15:27:04.611Z,7.30
2019-02-06T15:29:58.527Z,7.03
2019-02-06T15:32:55.987Z,7.33
2019-02-06T15:35:35.835Z,6.57
2019-02-06T15:38:15.924Z,7.23
2019-02-06T15:41:05.705Z,7.70
2019-02-06T15:43:44.835Z,7.87
2019-02-06T15:46:12.647Z,6.90
2019-02-06T15:48:23.943Z,7.23
2019-02-06T15:51:03.410Z,7.43
2019-02-06T15:53:56.119Z,7.27
2019-02-06T15:56:33.795Z,7.43
2019-02-06T15:59:10.503Z,7.23
2019-02-06T16:01:25.392Z,7.50
2019-02-06T16:04:21.515Z,7.77
2019-02-06T16:06:50.439Z,8.30
2019-02-06T16:09:17.475Z,7.47
2019-02-06T16:11:54.143Z,6.90
2019-02-06T16:14:33.412Z,8.13
2019-02-06T16:17:20.099Z,7.43
2019-02-06T16:19:50.323Z,7.17
2019-02-06T16:22:34.080Z,7.07
2019-02-06T16:25:04.963Z,7.50
2019-02-06T16:27:40.507Z,7.77
2019-02-06T16:30:10.932Z,7.73
2019-02-06T16:33:01.624Z,7.27
2019-02-06T16:35:21.255Z,9.30
2019-02-06T16:38:08.725Z,7.23
2019-02-06T16:40:39.934Z,6.57
2019-02-06T16:43:15.331Z,7.10
2019-02-06T16:46:00.031Z,6.57
2019-02-06T16:48:35.695Z,7.20
2019-02-06T16:50:59.765Z,6.30
2019-02-06T16:53:21.384Z,7.40
2019-02-06T16:55:59.404Z,6.07
2019-02-06T16:58:34.941Z,6.73
2019-02-06T17:01:18.331Z,5.50
2019-02-06T17:04:06.570Z,6.63
2019-02-06T17:06:43.315Z,6.43
2019-02-06T17:09:24.598Z,7.20
2019-02-06T17:12:04.147Z,7.27
2019-02-06T17:14:43.740Z,7.43
2019-02-06T17:17:14.967Z,7.10
2019-02-06T17:19:44.876Z,6.53
2019-02-06T17:22:13.724Z,7.20
2019-02-06T17:24:45.004Z,7.43
2019-02-06T17:27:33.363Z,7.50
2019-02-06T17:30:23.620Z,7.43
2019-02-06T17:32:45.541Z,15.57
2019-02-06T17:35:04.162Z,12.57
2019-02-06T17:38:00.615Z,11.53
2019-02-06T17:40:37.764Z,8.85
2019-02-06T17:43:23.976Z,8.47
2019-02-06T17:45:49.723Z,8.50
2019-02-06T17:48:22.792Z,9.33
2019-02-06T17:50:53.239Z,7.37
2019-02-06T17:53:29.391Z,10.07
2019-02-06T17:55:33.887Z,9.70
2019-02-06T17:57:38.280Z,10.33
2019-02-06T17:59:42.267Z,7.80
2019-02-06T18:01:49.713Z,8.27
2019-02-06T18:04:03.061Z,7.80
2019-02-06T18:06:07.967Z,8.10
2019-02-06T18:08:12.063Z,7.60
2019-02-06T18:10:17.335Z,8.37
2019-02-06T18:12:26.273Z,6.93
2019-02-06T18:14:26.854Z,11.07
2019-02-06T18:18:25.823Z,11.40
2019-02-06T18:20:29.942Z,9.37
2019-02-06T18:22:34.528Z,12.77
2019-02-06T18:24:38.901Z,8.93
2019-02-06T18:26:45.614Z,7.43
2019-02-06T18:28:49.557Z,7.07
2019-02-06T18:30:53.804Z,6.53
2019-02-06T18:32:59.858Z,6.50
2019-02-06T18:35:04.623Z,6.73
2019-02-06T18:37:09.062Z,7.23
2019-02-06T18:39:14.624Z,6.93
2019-02-06T18:41:18.580Z,7.17
2019-02-06T18:43:23.331Z,7.73
2019-02-06T18:45:27.974Z,7.30
2019-02-06T18:47:32.096Z,7.37
2019-02-06T18:49:36.594Z,7.30
2019-02-06T18:51:42.579Z,6.97
2019-02-06T18:53:46.783Z,8.00
2019-02-06T18:55:51.316Z,7.90
2019-02-06T18:57:55.335Z,8.60
2019-02-06T18:59:59.287Z,8.03
2019-02-06T19:02:03.932Z,8.17
2019-02-06T19:04:12.163Z,8.17
2019-02-06T19:06:18.924Z,8.10
2019-02-06T19:08:21.850Z,8.87
2019-02-06T19:10:27.104Z,7.80
2019-02-06T19:12:30.964Z,7.97
2019-02-06T19:14:35.007Z,8.47
2019-02-06T19:16:39.061Z,8.57
2019-02-06T19:18:43.331Z,8.83
2019-02-06T19:20:47.227Z,9.57
2019-02-06T19:22:51.264Z,10.40
2019-02-06T19:24:55.131Z,9.40
2019-02-06T19:26:58.907Z,10.17
2019-02-06T19:29:02.962Z,9.10
2019-02-06T19:31:07.188Z,10.03
2019-02-06T19:33:11.487Z,9.47
2019-02-06T19:35:15.441Z,10.87
2019-02-06T19:37:19.387Z,8.97
2019-02-06T19:39:23.719Z,10.73
2019-02-06T19:41:27.727Z,9.90
2019-02-06T19:43:31.558Z,9.37
2019-02-06T19:45:37.014Z,10.00
2019-02-06T19:47:41.201Z,10.40
2019-02-06T19:49:45.137Z,9.63
2019-02-06T19:51:49.484Z,10.33
2019-02-06T19:53:53.444Z,10.10
2019-02-06T19:55:57.467Z,10.40
2019-02-06T19:58:01.647Z,9.87
2019-02-06T20:00:10.035Z,10.30
2019-02-06T20:02:14.199Z,10.80
2019-02-06T20:04:18.125Z,9.60
2019-02-06T20:06:32.027Z,10.43
2019-02-06T20:08:36.396Z,10.83
2019-02-06T20:10:43.271Z,10.57
2019-02-06T20:12:47.513Z,9.33
2019-02-06T20:14:51.473Z,26.07
2019-02-06T20:16:55.448Z,36.33
2019-02-06T20:18:59.853Z,15.67
2019-02-06T20:21:03.851Z,10.43
2019-02-06T20:23:10.782Z,10.67
2019-02-06T20:25:15.291Z,10.47
2019-02-06T20:27:19.274Z,10.13
2019-02-06T20:29:23.486Z,10.57
2019-02-06T20:31:27.788Z,10.03
2019-02-06T20:33:31.896Z,10.37
2019-02-06T20:35:36.608Z,10.93
2019-02-06T20:37:42.940Z,10.23
2019-02-06T20:39:47.409Z,9.53
2019-02-06T20:41:51.388Z,10.13
2019-02-06T20:43:55.264Z,10.57
2019-02-06T20:46:00.287Z,10.53
2019-02-06T20:48:14.340Z,11.17
2019-02-06T20:50:24.412Z,10.20
2019-02-06T20:52:28.478Z,10.93
2019-02-06T20:54:32.434Z,10.57
2019-02-06T20:56:36.489Z,10.10
2019-02-06T20:58:40.667Z,11.10
2019-02-06T21:00:45.188Z,11.33
2019-02-06T21:02:49.224Z,10.33
2019-02-06T21:04:53.029Z,10.97
2019-02-06T21:06:56.857Z,10.63
2019-02-06T21:09:00.728Z,10.77
2019-02-06T21:11:05.960Z,10.20
2019-02-06T21:13:10.381Z,10.40
2019-02-06T21:15:14.737Z,11.17
2019-02-06T21:17:18.791Z,12.23
2019-02-06T21:19:22.712Z,10.87
2019-02-06T21:21:28.419Z,11.33
2019-02-06T21:23:32.413Z,10.73
2019-02-06T21:25:53.170Z,50.77
2019-02-06T21:27:57.040Z,26.13
2019-02-06T21:30:00.925Z,11.50
2019-02-06T21:32:05.574Z,10.77
2019-02-06T21:34:10.143Z,11.13
2019-02-06T21:36:14.202Z,10.90
2019-02-06T21:38:18.223Z,10.57
2019-02-06T21:40:24.065Z,11.63
2019-02-06T21:42:27.907Z,11.50
2019-02-06T21:44:32.328Z,11.50
2019-02-06T21:46:36.438Z,10.63
2019-02-06T21:48:40.976Z,10.37
2019-02-06T21:50:44.920Z,10.93
2019-02-06T21:52:49.027Z,10.90
2019-02-06T21:54:52.932Z,10.93
2019-02-06T21:56:56.837Z,10.97
2019-02-06T21:59:00.707Z,11.13
2019-02-06T22:01:04.796Z,11.17
2019-02-06T22:03:10.809Z,11.30
2019-02-06T22:05:14.926Z,11.10
2019-02-06T22:07:18.896Z,9.27
2019-02-06T22:09:22.815Z,10.80
2019-02-06T22:11:26.800Z,11.63
2019-02-06T22:13:30.747Z,11.70
2019-02-06T22:15:34.719Z,11.23
2019-02-06T22:17:38.975Z,11.30
2019-02-06T22:19:43.044Z,11.33
2019-02-06T22:21:46.929Z,11.80
2019-02-06T22:23:50.715Z,12.00
2019-02-06T22:25:54.592Z,11.73
2019-02-06T22:27:58.564Z,12.73
2019-02-06T22:30:02.513Z,11.50
2019-02-06T22:32:06.642Z,10.83
2019-02-06T22:34:10.848Z,11.13
2019-02-06T22:36:14.863Z,11.77
2019-02-06T22:38:19.042Z,11.27
2019-02-06T22:40:23.830Z,11.13
2019-02-06T22:42:27.703Z,11.77
2019-02-06T22:44:31.541Z,10.83
2019-02-06T22:46:35.563Z,12.00
2019-02-06T22:48:39.945Z,11.83
2019-02-06T22:50:44.203Z,12.20
2019-02-06T22:52:48.642Z,12.67
2019-02-06T22:54:52.524Z,11.77
2019-02-06T22:56:56.768Z,11.87
2019-02-06T22:59:00.616Z,12.70
2019-02-06T23:01:41.323Z,11.67
2019-02-06T23:03:46.792Z,12.10
2019-02-06T23:05:50.688Z,11.80
2019-02-06T23:07:54.507Z,12.33
2019-02-06T23:09:58.566Z,12.97
2019-02-06T23:12:02.871Z,13.47
2019-02-06T23:14:16.924Z,13.60
2019-02-06T23:16:13.167Z,13.00
2019-02-06T23:18:17.439Z,13.77
2019-02-06T23:20:21.302Z,13.77
2019-02-06T23:22:25.102Z,13.57
2019-02-06T23:24:28.963Z,12.53
2019-02-06T23:26:32.797Z,12.57
2019-02-06T23:28:37.097Z,12.20
2019-02-06T23:30:41.440Z,11.63
2019-02-06T23:32:45.416Z,12.27
2019-02-06T23:34:49.376Z,12.27
2019-02-06T23:36:53.673Z,12.80
2019-02-06T23:38:57.543Z,13.77
2019-02-06T23:41:01.422Z,12.13
2019-02-06T23:43:05.481Z,14.07
2019-02-06T23:45:10.199Z,13.47
2019-02-06T23:47:14.518Z,12.87
2019-02-06T23:49:18.631Z,13.13
2019-02-06T23:51:23.620Z,13.60
2019-02-06T23:53:27.586Z,14.43
2019-02-06T23:55:31.555Z,14.57
2019-02-06T23:57:35.744Z,13.63
2019-02-06T23:59:40.100Z,13.60
